Time;durP1;ratioP1;P1;durP2;ratioP2;P2;SDS_P1;SDS_P2;PMS_P1;PMS_P2;Temp;Humidity;BMP_temperature;BMP_pressure;BME280_temperature;BME280_humidity;BME280_pressure;Samples;Min_cycle;Max_cycle;Signal;HPM_P1;HPM_P2
2023/01/08 00:00:03;;;;;;;4.33;3.23;;;;;;;4.10;100.00;100376.25;5045316;28;20431;-72
2023/01/08 00:02:38;;;;;;;5.23;3.53;;;;;;;4.16;100.00;100381.38;5050124;28;20211;-72
2023/01/08 00:05:06;;;;;;;4.93;3.40;;;;;;;4.21;100.00;100364.16;5048248;28;20208;-72
2023/01/08 00:07:32;;;;;;;3.70;3.23;;;;;;;4.28;100.00;100365.00;5042637;28;20228;-72
2023/01/08 00:09:59;;;;;;;5.27;3.20;;;;;;;4.29;100.00;100357.25;5047925;28;20202;-72
2023/01/08 00:12:26;;;;;;;5.90;3.53;;;;;;;4.31;100.00;100360.69;5046521;28;20630;-72
2023/01/08 00:14:53;;;;;;;4.40;3.20;;;;;;;4.31;100.00;100362.38;5048166;28;20198;-72
2023/01/08 00:17:19;;;;;;;4.77;3.57;;;;;;;4.26;100.00;100359.00;5047509;28;20227;-72
2023/01/08 00:19:45;;;;;;;4.10;3.13;;;;;;;4.19;100.00;100353.00;5040893;28;20224;-72
2023/01/08 00:22:12;;;;;;;5.17;3.27;;;;;;;4.13;100.00;100350.44;5045825;28;20282;-72
2023/01/08 00:24:38;;;;;;;6.83;3.40;;;;;;;4.11;100.00;100362.47;5044530;28;20196;-72
2023/01/08 00:27:05;;;;;;;4.37;3.20;;;;;;;4.05;100.00;100358.22;5045456;28;20200;-72
2023/01/08 00:29:32;;;;;;;4.47;3.27;;;;;;;4.01;100.00;100358.22;5045261;28;20188;-72
2023/01/08 00:31:59;;;;;;;4.47;3.23;;;;;;;3.95;100.00;100351.34;5046156;28;20197;-72
2023/01/08 00:34:25;;;;;;;4.17;3.10;;;;;;;3.89;100.00;100346.25;5047095;28;20218;-72
2023/01/08 00:36:51;;;;;;;7.87;3.03;;;;;;;3.85;100.00;100345.34;5049906;28;20198;-72
2023/01/08 00:39:18;;;;;;;4.23;2.70;;;;;;;3.79;100.00;100345.38;5045112;28;20691;-72
2023/01/08 00:41:44;;;;;;;6.27;3.30;;;;;;;3.77;100.00;100352.28;5046206;28;20195;-72
2023/01/08 00:44:11;;;;;;;3.33;2.80;;;;;;;3.71;100.00;100341.97;5041592;28;20191;-72
2023/01/08 00:46:38;;;;;;;4.80;3.07;;;;;;;3.66;100.00;100335.97;5048634;28;20278;-72
2023/01/08 00:49:05;;;;;;;5.00;3.00;;;;;;;3.60;100.00;100336.84;5043963;28;20247;-72
2023/01/08 00:51:31;;;;;;;4.43;3.20;;;;;;;3.55;100.00;100328.25;5049177;28;20200;-72
2023/01/08 00:53:57;;;;;;;3.80;2.60;;;;;;;3.52;100.00;100320.53;5048869;28;20201;-72
2023/01/08 00:56:24;;;;;;;5.33;3.20;;;;;;;3.50;100.00;100325.69;5048150;28;20197;-72
2023/01/08 00:58:50;;;;;;;3.73;2.87;;;;;;;3.45;100.00;100314.53;5050258;28;20859;-72
2023/01/08 01:01:16;;;;;;;4.30;2.90;;;;;;;3.42;100.00;100312.81;5043510;28;20238;-72
2023/01/08 01:03:44;;;;;;;5.23;3.07;;;;;;;3.39;100.00;100315.41;5041863;28;20516;-72
2023/01/08 01:06:12;;;;;;;4.13;3.30;;;;;;;3.38;100.00;100305.94;5046416;28;20207;-72
2023/01/08 01:08:38;;;;;;;5.10;3.40;;;;;;;3.39;100.00;100304.22;5043427;28;20223;-72
2023/01/08 01:11:07;;;;;;;6.03;3.50;;;;;;;3.39;100.00;100304.22;5046273;28;20195;-72
2023/01/08 01:13:34;;;;;;;5.83;3.50;;;;;;;3.38;100.00;100303.38;5042934;28;20246;-72
2023/01/08 01:16:01;;;;;;;5.37;3.23;;;;;;;3.40;100.00;100300.81;5047358;28;20192;-72
2023/01/08 01:18:28;;;;;;;4.03;3.30;;;;;;;3.38;100.00;100287.91;5045371;28;20217;-72
2023/01/08 01:20:56;;;;;;;4.60;3.50;;;;;;;3.40;100.00;100291.34;5047395;28;20219;-72
2023/01/08 01:23:22;;;;;;;5.77;3.47;;;;;;;3.41;100.00;100292.19;5023249;28;20199;-72
2023/01/08 01:25:49;;;;;;;5.87;3.40;;;;;;;3.39;100.00;100287.06;5046220;28;20287;-72
2023/01/08 01:28:16;;;;;;;5.33;3.57;;;;;;;3.41;100.00;100282.75;5051657;28;20241;-72
2023/01/08 01:30:43;;;;;;;5.53;3.60;;;;;;;3.44;100.00;100286.19;5054792;28;20283;-72
2023/01/08 01:33:10;;;;;;;5.77;3.87;;;;;;;3.42;100.00;100283.59;5051298;28;20258;-72
2023/01/08 01:35:37;;;;;;;5.83;3.77;;;;;;;3.39;100.00;100281.91;5051601;28;20608;-72
2023/01/08 01:38:05;;;;;;;4.60;3.43;;;;;;;3.40;100.00;100272.44;5057295;28;20230;-72
2023/01/08 01:40:31;;;;;;;5.30;3.80;;;;;;;3.41;100.00;100271.56;5057773;28;20222;-72
2023/01/08 01:42:58;;;;;;;5.87;3.43;;;;;;;3.40;100.00;100267.28;5059704;28;20190;-72
2023/01/08 01:45:27;;;;;;;5.30;3.70;;;;;;;3.40;100.00;100259.56;5064583;28;20205;-72
2023/01/08 01:47:57;;;;;;;5.50;3.90;;;;;;;3.38;100.00;100256.13;5064849;28;20214;-72
2023/01/08 01:50:29;;;;;;;4.40;3.60;;;;;;;3.35;100.00;100248.41;5062161;28;20187;-72
2023/01/08 01:53:01;;;;;;;6.33;4.10;;;;;;;3.36;100.00;100250.97;5057990;28;20204;-72
2023/01/08 01:55:30;;;;;;;5.70;4.10;;;;;;;3.33;100.00;100244.97;5059933;28;20222;-72
2023/01/08 01:58:03;;;;;;;5.00;4.00;;;;;;;3.32;100.00;100251.84;5055202;28;20301;-72
2023/01/08 02:00:30;;;;;;;6.70;4.03;;;;;;;3.30;100.00;100240.69;5055810;28;20241;-72
2023/01/08 02:02:57;;;;;;;8.00;4.53;;;;;;;3.29;100.00;100244.13;5061869;28;20191;-72
2023/01/08 02:05:30;;;;;;;7.10;4.03;;;;;;;3.32;100.00;100243.25;5057234;28;20196;-72
2023/01/08 02:08:06;;;;;;;5.73;4.23;;;;;;;3.31;100.00;100236.41;5061400;28;20278;-72
2023/01/08 02:10:41;;;;;;;5.60;4.10;;;;;;;3.31;100.00;100234.66;5047009;28;20686;-72
2023/01/08 02:13:12;;;;;;;4.57;3.60;;;;;;;3.29;100.00;100233.81;5046388;28;20207;-72
2023/01/08 02:15:47;;;;;;;5.83;4.40;;;;;;;3.25;100.00;100237.25;5046099;28;20204;-72
2023/01/08 02:18:24;;;;;;;9.30;4.30;;;;;;;3.19;100.00;100238.13;5047814;28;20224;-72
2023/01/08 02:20:56;;;;;;;6.90;4.63;;;;;;;3.15;100.00;100231.28;5045842;28;20223;-72
2023/01/08 02:23:59;;;;;;;5.97;3.87;;;;;;;3.15;100.00;100222.66;5051122;28;20207;-72
2023/01/08 02:26:29;;;;;;;7.10;4.30;;;;;;;3.16;100.00;100216.66;5046097;28;20191;-72
2023/01/08 02:29:01;;;;;;;7.10;4.47;;;;;;;3.14;100.00;100205.50;5033530;28;20371;-72
2023/01/08 02:31:30;;;;;;;7.07;4.50;;;;;;;3.11;100.00;100190.91;5045602;28;20652;-72
2023/01/08 02:33:56;;;;;;;6.50;4.97;;;;;;;3.09;100.00;100187.47;5043960;28;20199;-72
2023/01/08 02:36:32;;;;;;;7.23;4.10;;;;;;;3.07;100.00;100186.63;5043232;28;20203;-72
2023/01/08 02:39:10;;;;;;;7.37;4.40;;;;;;;3.11;100.00;100193.47;5044608;28;20227;-72
2023/01/08 02:41:54;;;;;;;5.83;4.20;;;;;;;3.10;100.00;100188.34;5034891;28;20892;-72
2023/01/08 02:44:27;;;;;;;7.30;4.93;;;;;;;3.11;100.00;100190.91;5043110;28;20200;-72
2023/01/08 02:46:57;;;;;;;6.77;4.27;;;;;;;3.14;100.00;100183.16;5046159;28;20278;-72
2023/01/08 02:49:28;;;;;;;7.37;4.80;;;;;;;3.13;100.00;100175.44;5050559;28;20197;-72
2023/01/08 02:51:59;;;;;;;10.57;4.57;;;;;;;3.12;100.00;100168.59;5046262;28;20211;-72
2023/01/08 02:54:31;;;;;;;6.80;4.70;;;;;;;3.16;100.00;100163.41;5043939;28;20257;-72
2023/01/08 02:57:03;;;;;;;5.57;4.40;;;;;;;3.15;100.00;100161.72;5029308;28;20203;-72
2023/01/08 02:59:32;;;;;;;7.30;4.70;;;;;;;3.11;100.00;100162.56;5047045;28;20187;-72
2023/01/08 03:02:00;;;;;;;6.07;4.23;;;;;;;3.09;100.00;100166.03;5046289;28;20206;-72
2023/01/08 03:04:34;;;;;;;7.07;5.00;;;;;;;3.08;100.00;100161.72;5034097;28;20618;-72
2023/01/08 03:07:05;;;;;;;7.00;5.10;;;;;;;3.10;100.00;100165.19;5050002;28;20611;-72
2023/01/08 03:09:32;;;;;;;6.63;4.83;;;;;;;3.07;100.00;100172.91;5045995;28;20198;-72
2023/01/08 03:12:11;;;;;;;8.50;5.03;;;;;;;3.07;100.00;100168.59;5048493;28;20461;-72
2023/01/08 03:14:44;;;;;;;6.50;4.50;;;;;;;3.05;100.00;100179.78;5053011;28;20210;-72
2023/01/08 03:17:19;;;;;;;7.73;5.10;;;;;;;2.99;100.00;100176.34;5045484;28;20196;-72
2023/01/08 03:19:50;;;;;;;7.20;4.77;;;;;;;2.95;100.00;100173.78;5049952;28;20199;-72
2023/01/08 03:22:18;;;;;;;6.83;4.67;;;;;;;2.92;100.00;100171.19;5052194;28;20195;-72
2023/01/08 03:24:48;;;;;;;7.10;4.90;;;;;;;2.95;100.00;100160.91;5045758;28;20196;-72
2023/01/08 03:27:19;;;;;;;8.20;4.73;;;;;;;2.93;100.00;100158.31;5047672;28;20211;-72
2023/01/08 03:29:48;;;;;;;7.00;5.03;;;;;;;2.93;100.00;100150.59;5047066;28;20206;-72
2023/01/08 03:32:17;;;;;;;8.97;5.20;;;;;;;2.94;100.00;100154.06;5051400;28;20196;-72
2023/01/08 03:34:45;;;;;;;7.13;4.93;;;;;;;2.97;100.00;100146.28;5049414;28;20206;-72
2023/01/08 03:37:14;;;;;;;7.10;4.93;;;;;;;3.05;100.00;100144.56;5049366;28;20278;-72
2023/01/08 03:39:45;;;;;;;9.57;5.40;;;;;;;3.06;100.00;100148.88;5046495;28;20394;-72
2023/01/08 03:42:14;;;;;;;7.57;5.63;;;;;;;3.13;100.00;100137.69;5032544;28;20206;-72
2023/01/08 03:44:42;;;;;;;10.27;5.33;;;;;;;3.17;100.00;100128.22;5047355;28;20203;-72
2023/01/08 03:47:10;;;;;;;9.63;5.37;;;;;;;3.16;100.00;100127.34;5042712;28;20195;-72
2023/01/08 03:49:38;;;;;;;7.13;5.30;;;;;;;3.14;100.00;100123.06;5051527;28;20299;-72
2023/01/08 03:52:05;;;;;;;9.97;6.13;;;;;;;3.14;100.00;100129.06;5030748;28;20222;-72
2023/01/08 03:54:34;;;;;;;12.50;5.57;;;;;;;3.15;100.00;100133.38;5044432;28;20214;-72
2023/01/08 03:57:00;;;;;;;12.57;6.13;;;;;;;3.15;100.00;100141.09;5052817;28;20196;-72
2023/01/08 03:59:27;;;;;;;9.60;5.60;;;;;;;3.21;100.00;100138.50;5048570;28;20206;-72
2023/01/08 04:01:55;;;;;;;8.63;5.57;;;;;;;3.29;100.00;100145.34;5051949;28;20194;-72
2023/01/08 04:04:22;;;;;;;8.47;5.17;;;;;;;3.33;100.00;100147.06;5045147;28;20660;-72
2023/01/08 04:06:48;;;;;;;6.97;5.33;;;;;;;3.40;100.00;100141.84;5043746;28;20270;-72
2023/01/08 04:09:14;;;;;;;10.20;6.20;;;;;;;3.46;100.00;100147.84;5049258;28;20227;-72
2023/01/08 04:11:41;;;;;;;10.70;6.53;;;;;;;3.55;100.00;100151.25;5043478;28;20214;-72
2023/01/08 04:14:07;;;;;;;7.33;5.33;;;;;;;3.60;100.00;100149.47;5043933;28;20207;-72
2023/01/08 04:16:33;;;;;;;9.90;6.20;;;;;;;3.63;100.00;100137.47;5050230;28;20620;-72
2023/01/08 04:19:02;;;;;;;10.80;6.27;;;;;;;3.70;100.00;100121.94;5044084;28;20223;-72
2023/01/08 04:21:29;;;;;;;9.50;5.80;;;;;;;3.73;100.00;100124.50;5051776;28;20195;-72
2023/01/08 04:23:55;;;;;;;10.07;6.57;;;;;;;3.78;100.00;100125.34;5051758;28;20194;-72
2023/01/08 04:26:22;;;;;;;9.43;5.73;;;;;;;3.86;100.00;100127.84;5050599;28;20195;-72
2023/01/08 04:28:48;;;;;;;10.53;6.97;;;;;;;3.94;100.00;100120.06;5054559;28;20217;-72
2023/01/08 04:31:14;;;;;;;9.23;6.40;;;;;;;4.00;100.00;100119.19;5045948;28;20208;-72
2023/01/08 04:33:41;;;;;;;8.87;6.30;;;;;;;4.01;100.00;100110.56;5052605;28;20197;-72
2023/01/08 04:36:09;;;;;;;7.83;5.60;;;;;;;4.04;100.00;100103.66;5048357;28;20205;-72
2023/01/08 04:38:36;;;;;;;10.63;5.90;;;;;;;4.10;100.00;100093.28;5045323;28;20212;-72
2023/01/08 04:41:03;;;;;;;10.60;6.97;;;;;;;4.12;100.00;100088.97;5040515;28;20763;-72
2023/01/08 04:43:30;;;;;;;10.97;7.00;;;;;;;4.15;100.00;100094.13;5044074;28;20234;-72
2023/01/08 04:45:57;;;;;;;8.77;6.00;;;;;;;4.16;100.00;100092.38;5045039;28;20694;-72
2023/01/08 04:48:24;;;;;;;9.63;5.83;;;;;;;4.19;100.00;100094.94;5050151;28;20219;-72
2023/01/08 04:50:50;;;;;;;9.63;6.23;;;;;;;4.21;100.00;100092.34;5045175;28;20758;-72
2023/01/08 04:53:18;;;;;;;10.30;6.50;;;;;;;4.20;100.00;100088.03;5047624;28;20233;-72
2023/01/08 04:55:45;;;;;;;7.97;5.40;;;;;;;4.16;100.00;100079.47;5040642;28;20271;-72
2023/01/08 04:58:12;;;;;;;8.47;5.87;;;;;;;4.09;100.00;100081.25;5046698;28;20222;-72
2023/01/08 05:00:39;;;;;;;7.93;5.47;;;;;;;4.00;100.00;100073.59;5046458;28;20204;-72
2023/01/08 05:03:05;;;;;;;9.07;6.13;;;;;;;3.96;100.00;100074.50;5026278;28;20287;-72
2023/01/08 05:05:33;;;;;;;7.23;4.90;;;;;;;3.93;100.00;100083.09;5049037;28;20749;-72
2023/01/08 05:08:00;;;;;;;7.73;5.40;;;;;;;3.88;100.00;100078.84;5041533;28;20219;-72
2023/01/08 05:10:31;;;;;;;7.60;5.90;;;;;;;3.84;100.00;100077.16;5047312;28;20194;-72
2023/01/08 05:12:58;;;;;;;7.43;5.60;;;;;;;3.83;100.00;100075.44;5049597;28;20714;-72
2023/01/08 05:15:25;;;;;;;7.37;5.23;;;;;;;3.79;100.00;100075.44;5043562;28;20210;-72
2023/01/08 05:17:58;;;;;;;7.57;5.30;;;;;;;3.77;100.00;100072.03;5046939;28;20230;-72
2023/01/08 05:20:25;;;;;;;7.93;5.43;;;;;;;3.70;100.00;100078.09;5043465;28;20203;-72
2023/01/08 05:22:51;;;;;;;10.13;5.80;;;;;;;3.69;100.00;100085.84;5042112;28;20236;-72
2023/01/08 05:25:18;;;;;;;7.57;5.20;;;;;;;3.75;100.00;100084.09;5047360;28;20562;-72
2023/01/08 05:27:45;;;;;;;9.87;6.40;;;;;;;3.81;100.00;100085.75;5041679;28;20792;-72
2023/01/08 05:30:13;;;;;;;8.57;5.77;;;;;;;3.81;100.00;100072.88;5043466;28;20210;-72
2023/01/08 05:32:39;;;;;;;9.30;6.33;;;;;;;3.77;100.00;100068.59;5046269;28;20229;-72
2023/01/08 05:35:06;;;;;;;8.83;5.97;;;;;;;3.79;100.00;100064.28;5044832;28;20209;-72
2023/01/08 05:37:34;;;;;;;8.73;6.00;;;;;;;3.75;100.00;100065.19;5047874;23;20259;-72
2023/01/08 05:40:00;;;;;;;9.10;6.27;;;;;;;3.73;100.00;100067.78;5046807;28;20554;-72
2023/01/08 05:42:28;;;;;;;13.43;9.07;;;;;;;3.72;100.00;100070.38;5059420;28;20203;-72
2023/01/08 05:44:55;;;;;;;12.57;8.43;;;;;;;3.69;100.00;100066.06;5041601;28;20282;-72
2023/01/08 05:47:22;;;;;;;17.30;11.37;;;;;;;3.67;100.00;100065.22;5039308;28;20267;-72
2023/01/08 05:49:48;;;;;;;14.70;9.00;;;;;;;3.70;100.00;100066.94;5041244;28;20210;-71
2023/01/08 05:52:15;;;;;;;18.00;11.87;;;;;;;3.73;100.00;100061.75;5043230;28;20676;-72
2023/01/08 05:54:41;;;;;;;11.27;8.03;;;;;;;3.78;100.00;100062.56;5039373;28;20851;-71
2023/01/08 05:57:07;;;;;;;9.47;6.83;;;;;;;3.81;100.00;100070.28;5031021;28;20203;-72
2023/01/08 05:59:34;;;;;;;9.83;6.80;;;;;;;3.82;100.00;100065.97;5042643;28;20204;-72
2023/01/08 06:02:02;;;;;;;9.50;6.70;;;;;;;3.82;100.00;100058.25;5041443;28;20195;-72
2023/01/08 06:04:28;;;;;;;8.33;5.93;;;;;;;3.81;100.00;100059.13;5040372;28;20644;-72
2023/01/08 06:06:55;;;;;;;11.50;7.30;;;;;;;3.82;100.00;100061.69;5038834;28;20201;-72
2023/01/08 06:09:21;;;;;;;11.27;6.17;;;;;;;3.83;100.00;100049.66;5041082;28;20200;-71
2023/01/08 06:11:47;;;;;;;7.80;5.87;;;;;;;3.80;100.00;100042.81;5041298;28;20211;-72
2023/01/08 06:14:14;;;;;;;9.73;6.80;;;;;;;3.76;100.00;100054.00;5041383;28;20234;-71
2023/01/08 06:16:42;;;;;;;12.10;7.13;;;;;;;3.71;100.00;100056.63;5042058;28;20195;-72
2023/01/08 06:19:10;;;;;;;10.30;6.57;;;;;;;3.67;100.00;100051.50;5029346;28;20656;-72
2023/01/08 06:21:37;;;;;;;10.93;7.43;;;;;;;3.64;100.00;100065.28;5046646;28;20209;-71
2023/01/08 06:24:04;;;;;;;8.80;6.50;;;;;;;3.64;100.00;100056.66;5045164;28;20223;-71
2023/01/08 06:26:30;;;;;;;10.63;7.27;;;;;;;3.65;100.00;100045.50;5043240;28;20757;-71
2023/01/08 06:28:56;;;;;;;9.97;6.43;;;;;;;3.65;100.00;100045.50;5044698;28;20199;-72
2023/01/08 06:31:23;;;;;;;9.70;7.10;;;;;;;3.66;100.00;100054.91;5026622;28;20204;-71
2023/01/08 06:33:49;;;;;;;12.07;7.37;;;;;;;3.66;100.00;100054.91;5043819;28;20226;-72
2023/01/08 06:36:17;;;;;;;11.60;7.50;;;;;;;3.70;100.00;100049.75;5046787;28;20195;-71
2023/01/08 06:38:43;;;;;;;12.53;7.50;;;;;;;3.77;100.00;100055.72;5039385;28;20226;-72
2023/01/08 06:41:10;;;;;;;9.80;7.23;;;;;;;3.83;100.00;100049.66;5041429;28;20195;-71
2023/01/08 06:43:38;;;;;;;8.83;6.63;;;;;;;3.88;100.00;100047.91;5045042;28;20218;-71
2023/01/08 06:46:05;;;;;;;9.63;6.70;;;;;;;3.93;100.00;100049.56;5038804;28;20210;-72
2023/01/08 06:48:32;;;;;;;10.97;8.10;;;;;;;4.01;100.00;100040.91;5039690;28;20274;-71
2023/01/08 06:50:59;;;;;;;12.70;7.07;;;;;;;4.06;100.00;100039.13;5040411;28;20213;-72
2023/01/08 06:53:27;;;;;;;8.90;6.30;;;;;;;4.11;100.00;100035.63;5040088;28;20196;-72
2023/01/08 06:55:55;;;;;;;9.60;6.80;;;;;;;4.16;100.00;100039.03;5040805;28;20187;-72
2023/01/08 06:58:22;;;;;;;12.83;7.90;;;;;;;4.17;100.00;100038.19;5041129;28;20226;-72
2023/01/08 07:00:48;;;;;;;8.87;6.43;;;;;;;4.21;100.00;100031.25;5043237;28;20221;-72
2023/01/08 07:03:15;;;;;;;12.70;8.00;;;;;;;4.21;100.00;100036.44;5045908;28;20203;-72
2023/01/08 07:05:41;;;;;;;10.83;7.27;;;;;;;4.21;100.00;100048.47;5041898;28;20207;-72
2023/01/08 07:08:10;;;;;;;11.27;7.80;;;;;;;4.16;100.00;100054.53;5040758;28;20210;-72
2023/01/08 07:10:38;;;;;;;10.63;7.63;;;;;;;4.13;100.00;100053.69;5045843;28;20203;-72
2023/01/08 07:13:06;;;;;;;12.33;7.67;;;;;;;4.11;100.00;100056.28;5041524;28;20219;-72
2023/01/08 07:15:33;;;;;;;9.70;7.07;;;;;;;4.08;100.00;100048.59;5028773;28;20199;-72
2023/01/08 07:17:59;;;;;;;9.40;6.77;;;;;;;4.10;100.00;100053.75;5044014;28;20676;-72
2023/01/08 07:20:25;;;;;;;9.13;6.43;;;;;;;4.15;100.00;100059.69;5041119;28;20671;-72
2023/01/08 07:22:52;;;;;;;9.77;6.73;;;;;;;4.18;100.00;100060.50;5026068;28;20211;-71
2023/01/08 07:25:18;;;;;;;9.10;6.10;;;;;;;4.23;100.00;100057.06;5025315;28;20227;-72
2023/01/08 07:27:49;;;;;;;12.07;6.33;;;;;;;4.27;100.00;100067.31;5041521;28;20200;-72
2023/01/08 07:30:15;;;;;;;11.20;7.10;;;;;;;4.30;100.00;100058.72;5032139;28;21777;-72
2023/01/08 07:32:41;;;;;;;10.73;6.93;;;;;;;4.31;100.00;100055.25;5042842;28;20269;-72
2023/01/08 07:35:08;;;;;;;9.60;5.80;;;;;;;4.36;100.00;100049.19;5043645;28;20229;-72
2023/01/08 07:37:39;;;;;;;9.27;6.43;;;;;;;4.40;100.00;100050.00;5040843;28;20668;-72
2023/01/08 07:40:07;;;;;;;10.63;7.00;;;;;;;4.42;100.00;100042.25;5038117;28;20419;-72
2023/01/08 07:42:33;;;;;;;9.83;6.60;;;;;;;4.44;100.00;100049.09;5039113;28;20245;-72
2023/01/08 07:45:01;;;;;;;10.47;6.67;;;;;;;4.48;100.00;100052.50;5038503;28;20687;-72
2023/01/08 07:47:27;;;;;;;9.17;6.30;;;;;;;4.50;100.00;100055.91;5042355;28;20552;-72
2023/01/08 07:49:54;;;;;;;15.20;6.70;;;;;;;4.51;100.00;100058.50;5037917;28;20245;-72
2023/01/08 07:52:20;;;;;;;9.70;6.70;;;;;;;4.53;100.00;100037.81;5041093;28;20225;-72
2023/01/08 07:54:46;;;;;;;12.07;6.70;;;;;;;4.56;100.00;100048.13;5040719;28;20572;-72
2023/01/08 07:57:13;;;;;;;9.93;6.77;;;;;;;4.58;100.00;100048.13;5040431;28;20509;-72
2023/01/08 07:59:39;;;;;;;10.10;6.10;;;;;;;4.62;100.00;100048.03;5027928;28;20222;-72
2023/01/08 08:02:07;;;;;;;10.37;6.90;;;;;;;4.64;100.00;100050.63;5041045;28;20274;-72
2023/01/08 08:04:33;;;;;;;10.10;6.20;;;;;;;4.67;100.00;100048.84;5041841;28;20231;-72
2023/01/08 08:07:00;;;;;;;9.97;6.40;;;;;;;4.71;100.00;100044.50;5038277;28;20203;-72
2023/01/08 08:09:28;;;;;;;10.63;6.90;;;;;;;4.73;100.00;100042.75;5040612;28;20203;-72
2023/01/08 08:11:54;;;;;;;10.97;7.07;;;;;;;4.76;100.00;100037.56;5041427;28;20215;-72
2023/01/08 08:14:20;;;;;;;12.20;7.33;;;;;;;4.78;100.00;100051.31;5042629;28;20215;-72
2023/01/08 08:16:47;;;;;;;7.90;5.83;;;;;;;4.81;100.00;100056.44;5043693;28;20971;-72
2023/01/08 08:19:15;;;;;;;10.13;7.00;;;;;;;4.84;100.00;100051.25;5042716;28;20678;-72
2023/01/08 08:21:41;;;;;;;10.90;7.30;;;;;;;4.86;100.00;100048.66;5038448;28;20204;-72
2023/01/08 08:24:08;;;;;;;11.80;6.97;;;;;;;4.87;100.00;100052.94;5042047;28;20219;-72
2023/01/08 08:26:34;;;;;;;8.60;6.20;;;;;;;4.85;100.00;100045.19;5038881;28;20676;-72
2023/01/08 08:29:01;;;;;;;9.67;6.67;;;;;;;4.84;100.00;100045.25;5042860;28;20191;-72
2023/01/08 08:31:28;;;;;;;9.07;6.60;;;;;;;4.84;100.00;100037.50;5041982;28;20195;-72
2023/01/08 08:33:54;;;;;;;11.30;6.17;;;;;;;4.85;100.00;100046.94;5042467;28;20219;-72
2023/01/08 08:36:28;;;;;;;9.13;6.10;;;;;;;4.89;100.00;100046.00;5038708;28;20202;-72
2023/01/08 08:38:54;;;;;;;10.13;6.07;;;;;;;4.96;100.00;100044.22;5039984;28;20545;-72
2023/01/08 08:41:20;;;;;;;9.97;6.07;;;;;;;5.01;100.00;100040.69;5038261;28;20377;-71
2023/01/08 08:43:48;;;;;;;12.03;6.17;;;;;;;5.09;100.00;100038.03;5039568;28;20215;-72
2023/01/08 08:46:15;;;;;;;9.10;6.37;;;;;;;5.19;100.00;100036.16;5038126;28;20205;-72
2023/01/08 08:48:41;;;;;;;9.37;6.47;;;;;;;5.24;100.00;100044.72;5041184;28;20191;-72
2023/01/08 08:51:08;;;;;;;11.87;6.87;;;;;;;5.30;100.00;100042.06;5037989;28;20196;-72
2023/01/08 08:53:35;;;;;;;10.93;6.67;;;;;;;5.36;100.00;100034.19;5037903;28;20223;-72
2023/01/08 08:56:03;;;;;;;8.83;6.57;;;;;;;5.40;100.00;100040.19;5037754;28;20207;-72
2023/01/08 08:58:29;;;;;;;11.73;6.30;;;;;;;5.45;100.00;100033.22;5040924;28;20204;-72
2023/01/08 09:01:00;;;;;;;8.73;6.33;;;;;;;5.50;100.00;100031.41;5039486;28;20207;-72
2023/01/08 09:03:28;;;;;;;10.57;6.87;;;;;;;5.58;100.00;100023.56;5040606;28;20227;-72
2023/01/08 09:05:54;;;;;;;13.83;8.60;;;;;;;5.63;100.00;100032.13;5039196;28;20686;-72
2023/01/08 09:08:22;;;;;;;37.43;18.67;;;;;;;5.68;100.00;100053.56;5042132;28;20693;-72
2023/01/08 09:10:49;;;;;;;30.80;15.43;;;;;;;5.75;100.00;100051.75;5036206;28;20203;-72
2023/01/08 09:13:16;;;;;;;12.53;7.97;;;;;;;5.78;100.00;100044.78;5037678;28;20599;-72
2023/01/08 09:15:42;;;;;;;12.73;8.00;;;;;;;5.81;100.00;100041.31;5039978;28;20278;-72
2023/01/08 09:18:09;;;;;;;11.13;7.67;;;;;;;5.84;100.00;100033.47;5039429;28;20206;-72
2023/01/08 09:20:35;;;;;;;8.60;6.63;;;;;;;5.87;100.00;100023.97;5024772;28;20205;-72
2023/01/08 09:23:03;;;;;;;9.00;6.17;;;;;;;5.91;100.00;100017.00;5040324;28;20191;-72
2023/01/08 09:25:29;;;;;;;10.57;6.53;;;;;;;5.99;100.00;100016.91;5039712;28;20223;-72
2023/01/08 09:28:06;;;;;;;8.30;6.17;;;;;;;6.06;100.00;100014.16;5039935;28;20200;-72
2023/01/08 09:30:33;;;;;;;9.50;6.10;;;;;;;6.11;100.00;100008.91;5041241;28;20213;-72
2023/01/08 09:33:00;;;;;;;10.50;6.17;;;;;;;6.16;100.00;100009.69;5040910;28;20227;-72
2023/01/08 09:35:28;;;;;;;8.37;6.27;;;;;;;6.19;100.00;100021.72;5039280;28;20225;-72
2023/01/08 09:37:56;;;;;;;9.27;6.03;;;;;;;6.22;100.00;100012.16;5035422;28;20306;-72
2023/01/08 09:40:26;;;;;;;9.60;6.20;;;;;;;6.25;100.00;100011.28;5041919;28;20196;-72
2023/01/08 09:42:55;;;;;;;8.43;5.87;;;;;;;6.30;100.00;100018.94;5036913;28;20200;-72
2023/01/08 09:45:26;;;;;;;8.13;6.27;;;;;;;6.33;100.00;100004.22;5039830;28;20227;-72
2023/01/08 09:47:54;;;;;;;11.90;6.50;;;;;;;6.38;100.00;100014.47;5037043;28;20200;-71
2023/01/08 09:50:22;;;;;;;8.07;5.67;;;;;;;6.40;100.00;100017.88;5041277;28;20208;-71
2023/01/08 09:52:48;;;;;;;7.73;5.73;;;;;;;6.43;100.00;100015.25;5041591;28;20241;-71
2023/01/08 09:55:16;;;;;;;7.27;5.33;;;;;;;6.48;100.00;100002.22;5042994;28;20631;-71
2023/01/08 09:57:43;;;;;;;7.83;5.80;;;;;;;6.53;100.00;100003.00;5044961;28;20207;-71
2023/01/08 10:00:14;;;;;;;7.73;5.70;;;;;;;6.54;100.00;99996.91;5043929;28;20212;-71
2023/01/08 10:02:42;;;;;;;7.90;5.50;;;;;;;6.56;100.00;100000.31;5041882;28;20203;-71
2023/01/08 10:05:13;;;;;;;7.73;5.70;;;;;;;6.60;100.00;100000.25;5037702;28;20225;-72
2023/01/08 10:07:39;;;;;;;9.83;6.13;;;;;;;6.65;100.00;99994.97;5034700;28;20206;-72
2023/01/08 10:10:16;;;;;;;8.13;5.57;;;;;;;6.69;100.00;99990.59;5037431;28;20671;-71
2023/01/08 10:12:42;;;;;;;7.20;5.40;;;;;;;6.75;100.00;99980.09;5042701;28;20224;-71
2023/01/08 10:15:14;;;;;;;8.60;5.20;;;;;;;6.79;100.00;99980.00;5038807;28;20236;-71
2023/01/08 10:17:46;;;;;;;7.80;5.20;;;;;;;6.85;100.00;99972.97;5034821;28;20205;-72
2023/01/08 10:20:13;;;;;;;6.53;5.13;;;;;;;6.88;100.00;99976.38;5025940;28;20321;-72
2023/01/08 10:22:40;;;;;;;13.63;7.60;;;;;;;6.89;100.00;99972.88;5038926;28;20208;-71
2023/01/08 10:25:09;;;;;;;9.50;6.13;;;;;;;6.92;100.00;99972.81;5038870;28;20501;-71
2023/01/08 10:27:44;;;;;;;9.43;6.63;;;;;;;6.96;100.00;99974.44;5039798;28;20665;-71
2023/01/08 10:30:16;;;;;;;7.83;5.60;;;;;;;6.97;100.00;99976.16;5042218;28;20432;-72
2023/01/08 10:32:49;;;;;;;7.23;5.47;;;;;;;6.99;100.00;99973.53;5039325;28;20231;-71
2023/01/08 10:35:18;;;;;;;7.03;4.97;;;;;;;7.00;100.00;99973.50;5042462;28;20420;-72
2023/01/08 10:37:46;;;;;;;8.17;5.43;;;;;;;7.00;100.00;99968.31;5039370;28;20212;-73
2023/01/08 10:40:28;;;;;;;7.67;5.57;;;;;;;7.02;100.00;99973.47;5042153;28;20199;-72
2023/01/08 10:42:56;;;;;;;9.30;5.67;;;;;;;7.02;100.00;99973.47;5039819;28;20200;-72
2023/01/08 10:45:24;;;;;;;9.80;6.80;;;;;;;7.05;100.00;99965.59;5040523;28;20222;-73
2023/01/08 10:47:55;;;;;;;8.00;5.47;;;;;;;7.07;100.00;99956.09;5041858;28;20201;-72
2023/01/08 10:50:24;;;;;;;7.87;5.17;;;;;;;7.10;100.00;99957.75;5042160;28;20190;-73
2023/01/08 10:52:53;;;;;;;6.83;4.90;;;;;;;7.11;100.00;99955.13;5039730;28;20219;-72
2023/01/08 10:55:24;;;;;;;7.23;4.97;;;;;;;7.13;100.00;99949.91;5037183;28;20226;-73
2023/01/08 10:57:56;;;;;;;6.23;4.27;;;;;;;7.17;100.00;99954.13;5038785;28;20197;-73
2023/01/08 11:00:28;;;;;;;7.00;5.07;;;;;;;7.17;100.00;99964.50;5042977;28;20202;-73
2023/01/08 11:03:00;;;;;;;6.00;4.57;;;;;;;7.17;100.00;99967.09;5041259;28;20195;-73
2023/01/08 11:05:36;;;;;;;6.57;5.43;;;;;;;7.11;100.00;99965.50;5040005;28;20222;-72
2023/01/08 11:08:05;;;;;;;6.93;4.70;;;;;;;7.12;100.00;99963.75;5039269;28;20208;-73
2023/01/08 11:10:33;;;;;;;7.40;4.87;;;;;;;7.13;100.00;99955.09;5038057;28;20200;-72
2023/01/08 11:13:03;;;;;;;6.87;5.17;;;;;;;7.15;100.00;99948.13;5039088;28;20219;-72
2023/01/08 11:15:36;;;;;;;7.80;4.97;;;;;;;7.20;100.00;99944.53;5039306;28;20590;-72
2023/01/08 11:18:28;;;;;;;8.17;5.37;;;;;;;7.23;100.00;99946.22;5037852;28;20194;-73
2023/01/08 11:21:09;;;;;;;6.93;4.80;;;;;;;7.25;100.00;99943.59;5025929;28;20215;-73
2023/01/08 11:23:35;;;;;;;8.73;4.93;;;;;;;7.27;100.00;99945.25;5038768;28;20229;-72
2023/01/08 11:26:08;;;;;;;5.03;3.93;;;;;;;7.27;100.00;99929.69;5040771;28;20203;-73
2023/01/08 11:28:47;;;;;;;8.97;5.37;;;;;;;7.29;100.00;99933.09;5039962;28;20453;-73